sensor_id;sensor_type;location;lat;lon;timestamp;pressure;altitude;pressure_sealevel;temperature;humidity
70968;BME280;58629;48.808;8.820;2023-11-22T00:01:59;97385.13;;;6.26;100.00
70968;BME280;58629;48.808;8.820;2023-11-22T00:04:24;97382.50;;;6.26;100.00
70968;BME280;58629;48.808;8.820;2023-11-22T00:06:50;97377.25;;;6.26;100.00
70968;BME280;58629;48.808;8.820;2023-11-22T00:09:15;97391.88;;;6.27;100.00
70968;BME280;58629;48.808;8.820;2023-11-22T00:11:41;97404.63;;;6.21;100.00
70968;BME280;58629;48.808;8.820;2023-11-22T00:14:07;97410.13;;;5.88;100.00
70968;BME280;58629;48.808;8.820;2023-11-22T00:16:32;97402.91;;;5.74;100.00
70968;BME280;58629;48.808;8.820;2023-11-22T00:18:57;97418.16;;;5.55;100.00
70968;BME280;58629;48.808;8.820;2023-11-22T00:21:23;97416.22;;;5.45;100.00
70968;BME280;58629;48.808;8.820;2023-11-22T00:23:48;97413.53;;;5.34;100.00
70968;BME280;58629;48.808;8.820;2023-11-22T00:26:13;97416.06;;;5.27;100.00
70968;BME280;58629;48.808;8.820;2023-11-22T00:28:40;97423.56;;;5.25;100.00
70968;BME280;58629;48.808;8.820;2023-11-22T00:31:06;97431.00;;;5.16;100.00
70968;BME280;58629;48.808;8.820;2023-11-22T00:33:31;97444.03;;;5.05;100.00
70968;BME280;58629;48.808;8.820;2023-11-22T00:35:57;97443.69;;;5.07;100.00
70968;BME280;58629;48.808;8.820;2023-11-22T00:38:23;97450.69;;;4.96;100.00
70968;BME280;58629;48.808;8.820;2023-11-22T00:40:48;97451.44;;;4.93;100.00
70968;BME280;58629;48.808;8.820;2023-11-22T00:43:15;97459.63;;;4.88;100.00
70968;BME280;58629;48.808;8.820;2023-11-22T00:45:40;97453.88;;;4.75;100.00
70968;BME280;58629;48.808;8.820;2023-11-22T00:48:05;97460.22;;;4.74;100.00
70968;BME280;58629;48.808;8.820;2023-11-22T00:50:31;97457.56;;;4.71;100.00
70968;BME280;58629;48.808;8.820;2023-11-22T00:52:56;97462.31;;;4.58;100.00
70968;BME280;58629;48.808;8.820;2023-11-22T00:55:22;97466.75;;;4.54;100.00
70968;BME280;58629;48.808;8.820;2023-11-22T00:57:47;97472.38;;;4.53;100.00
70968;BME280;58629;48.808;8.820;2023-11-22T01:00:12;97475.34;;;4.51;100.00
70968;BME280;58629;48.808;8.820;2023-11-22T01:02:40;97482.13;;;4.56;100.00
70968;BME280;58629;48.808;8.820;2023-11-22T01:05:08;97489.59;;;4.54;100.00
70968;BME280;58629;48.808;8.820;2023-11-22T01:07:37;97495.97;;;4.53;100.00
70968;BME280;58629;48.808;8.820;2023-11-22T01:10:03;97500.84;;;4.54;100.00
70968;BME280;58629;48.808;8.820;2023-11-22T01:12:29;97493.31;;;4.49;100.00
70968;BME280;58629;48.808;8.820;2023-11-22T01:14:54;97495.03;;;4.38;100.00
70968;BME280;58629;48.808;8.820;2023-11-22T01:17:20;97504.31;;;4.32;100.00
70968;BME280;58629;48.808;8.820;2023-11-22T01:19:45;97512.16;;;4.28;100.00
70968;BME280;58629;48.808;8.820;2023-11-22T01:22:10;97506.38;;;4.16;100.00
70968;BME280;58629;48.808;8.820;2023-11-22T01:24:36;97511.25;;;4.17;100.00
70968;BME280;58629;48.808;8.820;2023-11-22T01:27:03;97506.31;;;4.12;100.00
70968;BME280;58629;48.808;8.820;2023-11-22T01:29:28;97511.97;;;4.14;100.00
70968;BME280;58629;48.808;8.820;2023-11-22T01:31:54;97509.66;;;4.09;100.00
70968;BME280;58629;48.808;8.820;2023-11-22T01:34:20;97511.47;;;4.05;100.00
70968;BME280;58629;48.808;8.820;2023-11-22T01:36:45;97512.22;;;4.06;100.00
70968;BME280;58629;48.808;8.820;2023-11-22T01:39:11;97509.22;;;4.04;100.00
70968;BME280;58629;48.808;8.820;2023-11-22T01:41:38;97507.28;;;4.01;100.00
70968;BME280;58629;48.808;8.820;2023-11-22T01:44:04;97519.63;;;4.00;100.00
70968;BME280;58629;48.808;8.820;2023-11-22T01:46:30;97528.47;;;3.92;100.00
70968;BME280;58629;48.808;8.820;2023-11-22T01:48:55;97532.91;;;3.88;100.00
70968;BME280;58629;48.808;8.820;2023-11-22T01:51:21;97541.94;;;3.91;100.00
70968;BME280;58629;48.808;8.820;2023-11-22T01:53:48;97541.50;;;3.85;100.00
70968;BME280;58629;48.808;8.820;2023-11-22T01:56:14;97544.47;;;3.84;100.00
70968;BME280;58629;48.808;8.820;2023-11-22T01:58:41;97547.84;;;3.84;100.00
70968;BME280;58629;48.808;8.820;2023-11-22T02:01:07;97550.06;;;3.82;100.00
70968;BME280;58629;48.808;8.820;2023-11-22T02:03:33;97554.41;;;3.75;100.00
70968;BME280;58629;48.808;8.820;2023-11-22T02:05:59;97567.50;;;3.75;100.00
70968;BME280;58629;48.808;8.820;2023-11-22T02:08:25;97571.19;;;3.70;100.00
70968;BME280;58629;48.808;8.820;2023-11-22T02:11:01;97568.81;;;3.62;100.00
70968;BME280;58629;48.808;8.820;2023-11-22T02:13:30;97571.47;;;3.65;100.00
70968;BME280;58629;48.808;8.820;2023-11-22T02:15:55;97570.72;;;3.65;100.00
70968;BME280;58629;48.808;8.820;2023-11-22T02:18:25;97570.72;;;3.65;100.00
70968;BME280;58629;48.808;8.820;2023-11-22T02:20:51;97573.59;;;3.56;100.00
70968;BME280;58629;48.808;8.820;2023-11-22T02:23:16;97577.59;;;3.50;100.00
70968;BME280;58629;48.808;8.820;2023-11-22T02:25:42;97585.22;;;3.59;100.00
70968;BME280;58629;48.808;8.820;2023-11-22T02:28:08;97586.69;;;3.56;100.00
70968;BME280;58629;48.808;8.820;2023-11-22T02:30:34;97592.53;;;3.49;100.00
70968;BME280;58629;48.808;8.820;2023-11-22T02:32:59;97597.44;;;3.51;100.00
70968;BME280;58629;48.808;8.820;2023-11-22T02:35:24;97598.91;;;3.48;100.00
70968;BME280;58629;48.808;8.820;2023-11-22T02:37:52;97602.91;;;3.42;100.00
70968;BME280;58629;48.808;8.820;2023-11-22T02:40:19;97597.13;;;3.33;100.00
70968;BME280;58629;48.808;8.820;2023-11-22T02:42:51;97595.63;;;3.32;100.00
70968;BME280;58629;48.808;8.820;2023-11-22T02:45:19;97608.84;;;3.20;100.00
70968;BME280;58629;48.808;8.820;2023-11-22T02:47:45;97622.63;;;3.17;100.00
70968;BME280;58629;48.808;8.820;2023-11-22T02:50:12;97617.06;;;3.19;100.00
70968;BME280;58629;48.808;8.820;2023-11-22T02:52:37;97616.03;;;3.04;100.00
70968;BME280;58629;48.808;8.820;2023-11-22T02:55:04;97619.06;;;3.06;100.00
70968;BME280;58629;48.808;8.820;2023-11-22T02:57:30;97626.13;;;3.06;100.00
70968;BME280;58629;48.808;8.820;2023-11-22T02:59:56;97627.31;;;3.08;100.00
70968;BME280;58629;48.808;8.820;2023-11-22T03:02:22;97638.59;;;3.12;100.00
70968;BME280;58629;48.808;8.820;2023-11-22T03:04:47;97633.22;;;3.05;100.00
70968;BME280;58629;48.808;8.820;2023-11-22T03:07:12;97638.25;;;2.95;100.00
70968;BME280;58629;48.808;8.820;2023-11-22T03:09:38;97642.03;;;2.97;100.00
70968;BME280;58629;48.808;8.820;2023-11-22T03:12:03;97645.69;;;2.93;100.00
70968;BME280;58629;48.808;8.820;2023-11-22T03:14:29;97658.41;;;2.94;100.00
70968;BME280;58629;48.808;8.820;2023-11-22T03:16:57;97660.22;;;2.90;100.00
70968;BME280;58629;48.808;8.820;2023-11-22T03:19:23;97658.06;;;2.77;100.00
70968;BME280;58629;48.808;8.820;2023-11-22T03:21:49;97660.84;;;2.68;100.00
70968;BME280;58629;48.808;8.820;2023-11-22T03:24:15;97658.81;;;2.77;100.00
70968;BME280;58629;48.808;8.820;2023-11-22T03:26:41;97656.22;;;2.77;100.00
70968;BME280;58629;48.808;8.820;2023-11-22T03:29:07;97652.47;;;2.78;100.00
70968;BME280;58629;48.808;8.820;2023-11-22T03:31:32;97655.44;;;2.77;100.00
70968;BME280;58629;48.808;8.820;2023-11-22T03:33:58;97655.13;;;2.62;100.00
70968;BME280;58629;48.808;8.820;2023-11-22T03:36:23;97656.25;;;2.46;100.00
70968;BME280;58629;48.808;8.820;2023-11-22T03:38:49;97664.72;;;2.39;100.00
70968;BME280;58629;48.808;8.820;2023-11-22T03:41:15;97661.25;;;2.35;100.00
70968;BME280;58629;48.808;8.820;2023-11-22T03:43:42;97671.19;;;2.30;100.00
70968;BME280;58629;48.808;8.820;2023-11-22T03:46:08;97669.78;;;2.32;100.00
70968;BME280;58629;48.808;8.820;2023-11-22T03:48:33;97671.97;;;2.30;100.00
70968;BME280;58629;48.808;8.820;2023-11-22T03:50:58;97677.81;;;2.24;100.00
70968;BME280;58629;48.808;8.820;2023-11-22T03:53:23;97683.41;;;2.26;100.00
70968;BME280;58629;48.808;8.820;2023-11-22T03:55:49;97686.03;;;2.26;100.00
70968;BME280;58629;48.808;8.820;2023-11-22T03:58:15;97685.28;;;2.25;100.00
70968;BME280;58629;48.808;8.820;2023-11-22T04:00:41;97693.63;;;2.31;100.00
70968;BME280;58629;48.808;8.820;2023-11-22T04:03:06;97694.13;;;2.36;100.00
70968;BME280;58629;48.808;8.820;2023-11-22T04:05:32;97703.22;;;2.42;100.00
70968;BME280;58629;48.808;8.820;2023-11-22T04:07:57;97704.66;;;2.40;100.00
70968;BME280;58629;48.808;8.820;2023-11-22T04:10:23;97699.13;;;2.41;100.00
70968;BME280;58629;48.808;8.820;2023-11-22T04:12:49;97699.59;;;2.47;100.00
70968;BME280;58629;48.808;8.820;2023-11-22T04:15:14;97697.66;;;2.44;100.00
70968;BME280;58629;48.808;8.820;2023-11-22T04:17:40;97698.78;;;2.43;100.00
70968;BME280;58629;48.808;8.820;2023-11-22T04:20:07;97690.25;;;2.46;100.00
70968;BME280;58629;48.808;8.820;2023-11-22T04:22:39;97695.66;;;2.53;100.00
70968;BME280;58629;48.808;8.820;2023-11-22T04:25:05;97700.44;;;2.51;100.00
70968;BME280;58629;48.808;8.820;2023-11-22T04:27:31;97701.78;;;2.60;100.00
70968;BME280;58629;48.808;8.820;2023-11-22T04:29:57;97711.22;;;2.65;100.00
70968;BME280;58629;48.808;8.820;2023-11-22T04:32:22;97717.13;;;2.62;100.00
70968;BME280;58629;48.808;8.820;2023-11-22T04:34:48;97721.34;;;2.67;100.00
70968;BME280;58629;48.808;8.820;2023-11-22T04:37:13;97718.47;;;2.56;100.00
70968;BME280;58629;48.808;8.820;2023-11-22T04:39:38;97734.00;;;2.49;100.00
70968;BME280;58629;48.808;8.820;2023-11-22T04:42:04;97742.63;;;2.49;100.00
70968;BME280;58629;48.808;8.820;2023-11-22T04:44:29;97742.84;;;2.44;100.00
70968;BME280;58629;48.808;8.820;2023-11-22T04:46:55;97751.88;;;2.47;100.00
70968;BME280;58629;48.808;8.820;2023-11-22T04:49:20;97741.50;;;2.50;100.00
70968;BME280;58629;48.808;8.820;2023-11-22T04:51:45;97745.66;;;2.51;100.00
70968;BME280;58629;48.808;8.820;2023-11-22T04:54:11;97761.22;;;2.48;100.00
70968;BME280;58629;48.808;8.820;2023-11-22T04:56:36;97764.03;;;2.55;100.00
70968;BME280;58629;48.808;8.820;2023-11-22T04:59:02;97765.88;;;2.54;100.00
70968;BME280;58629;48.808;8.820;2023-11-22T05:01:34;97763.84;;;2.48;100.00
70968;BME280;58629;48.808;8.820;2023-11-22T05:04:00;97769.59;;;2.53;100.00
70968;BME280;58629;48.808;8.820;2023-11-22T05:06:25;97778.09;;;2.50;100.00
70968;BME280;58629;48.808;8.820;2023-11-22T05:08:52;97780.56;;;2.43;100.00
70968;BME280;58629;48.808;8.820;2023-11-22T05:11:18;97784.34;;;2.46;100.00
70968;BME280;58629;48.808;8.820;2023-11-22T05:13:43;97790.25;;;2.43;100.00
70968;BME280;58629;48.808;8.820;2023-11-22T05:16:09;97787.97;;;2.41;100.00
70968;BME280;58629;48.808;8.820;2023-11-22T05:18:34;97794.56;;;2.51;100.00
70968;BME280;58629;48.808;8.820;2023-11-22T05:21:01;97795.31;;;2.51;100.00
70968;BME280;58629;48.808;8.820;2023-11-22T05:23:29;97796.66;;;2.45;100.00
70968;BME280;58629;48.808;8.820;2023-11-22T05:25:54;97800.44;;;2.48;100.00
70968;BME280;58629;48.808;8.820;2023-11-22T05:28:20;97796.81;;;2.37;100.00
70968;BME280;58629;48.808;8.820;2023-11-22T05:30:45;97796.13;;;2.40;100.00
70968;BME280;58629;48.808;8.820;2023-11-22T05:33:10;97806.09;;;2.34;100.00
70968;BME280;58629;48.808;8.820;2023-11-22T05:35:36;97796.06;;;2.36;100.00
70968;BME280;58629;48.808;8.820;2023-11-22T05:38:01;97799.28;;;2.45;100.00
70968;BME280;58629;48.808;8.820;2023-11-22T05:40:27;97799.03;;;2.50;100.00
70968;BME280;58629;48.808;8.820;2023-11-22T05:42:52;97795.22;;;2.48;100.00
70968;BME280;58629;48.808;8.820;2023-11-22T05:45:18;97799.22;;;2.57;100.00
70968;BME280;58629;48.808;8.820;2023-11-22T05:47:43;97794.78;;;3.08;100.00
70968;BME280;58629;48.808;8.820;2023-11-22T05:50:08;97800.00;;;3.43;100.00
70968;BME280;58629;48.808;8.820;2023-11-22T05:52:34;97800.72;;;3.78;100.00
70968;BME280;58629;48.808;8.820;2023-11-22T05:55:00;97806.84;;;3.86;100.00
70968;BME280;58629;48.808;8.820;2023-11-22T05:57:29;97801.78;;;3.96;100.00
70968;BME280;58629;48.808;8.820;2023-11-22T05:59:54;97813.72;;;4.13;100.00
70968;BME280;58629;48.808;8.820;2023-11-22T06:02:19;97816.50;;;3.82;100.00
70968;BME280;58629;48.808;8.820;2023-11-22T06:04:45;97816.53;;;3.47;99.96
70968;BME280;58629;48.808;8.820;2023-11-22T06:07:10;97830.84;;;3.34;100.00
70968;BME280;58629;48.808;8.820;2023-11-22T06:09:35;97835.13;;;3.42;100.00
70968;BME280;58629;48.808;8.820;2023-11-22T06:12:01;97847.41;;;3.57;100.00
70968;BME280;58629;48.808;8.820;2023-11-22T06:14:26;97852.91;;;4.06;100.00
70968;BME280;58629;48.808;8.820;2023-11-22T06:16:52;97851.63;;;3.62;100.00
70968;BME280;58629;48.808;8.820;2023-11-22T06:19:17;97850.38;;;3.56;100.00
70968;BME280;58629;48.808;8.820;2023-11-22T06:21:43;97854.13;;;3.93;100.00
70968;BME280;58629;48.808;8.820;2023-11-22T06:24:08;97857.84;;;3.73;100.00
70968;BME280;58629;48.808;8.820;2023-11-22T06:26:36;97862.50;;;3.44;100.00
70968;BME280;58629;48.808;8.820;2023-11-22T06:29:05;97864.50;;;4.05;100.00
70968;BME280;58629;48.808;8.820;2023-11-22T06:31:30;97866.47;;;4.30;100.00
70968;BME280;58629;48.808;8.820;2023-11-22T06:33:55;97866.78;;;4.48;100.00
70968;BME280;58629;48.808;8.820;2023-11-22T06:36:21;97867.03;;;4.62;100.00
70968;BME280;58629;48.808;8.820;2023-11-22T06:38:46;97869.72;;;4.43;100.00
70968;BME280;58629;48.808;8.820;2023-11-22T06:41:11;97875.38;;;4.68;100.00
70968;BME280;58629;48.808;8.820;2023-11-22T06:43:37;97869.31;;;3.84;98.10
70968;BME280;58629;48.808;8.820;2023-11-22T06:46:02;97874.97;;;3.51;100.00
70968;BME280;58629;48.808;8.820;2023-11-22T06:48:31;97871.44;;;3.43;100.00
70968;BME280;58629;48.808;8.820;2023-11-22T06:50:57;97869.66;;;3.82;100.00
70968;BME280;58629;48.808;8.820;2023-11-22T06:53:22;97872.84;;;3.57;100.00
70968;BME280;58629;48.808;8.820;2023-11-22T06:55:48;97879.94;;;3.06;100.00
70968;BME280;58629;48.808;8.820;2023-11-22T06:58:13;97888.97;;;2.77;100.00
70968;BME280;58629;48.808;8.820;2023-11-22T07:00:38;97885.88;;;2.59;100.00
70968;BME280;58629;48.808;8.820;2023-11-22T07:03:05;97897.34;;;2.39;100.00
70968;BME280;58629;48.808;8.820;2023-11-22T07:05:31;97904.06;;;2.40;100.00
70968;BME280;58629;48.808;8.820;2023-11-22T07:07:56;97906.16;;;2.35;100.00
70968;BME280;58629;48.808;8.820;2023-11-22T07:10:21;97901.31;;;2.21;100.00
70968;BME280;58629;48.808;8.820;2023-11-22T07:12:47;97902.09;;;2.22;100.00
70968;BME280;58629;48.808;8.820;2023-11-22T07:15:13;97914.22;;;2.02;100.00
70968;BME280;58629;48.808;8.820;2023-11-22T07:17:39;97924.72;;;1.90;100.00
70968;BME280;58629;48.808;8.820;2023-11-22T07:20:06;97919.38;;;1.74;100.00
70968;BME280;58629;48.808;8.820;2023-11-22T07:22:34;97926.47;;;1.74;100.00
70968;BME280;58629;48.808;8.820;2023-11-22T07:25:00;97928.75;;;1.75;100.00
70968;BME280;58629;48.808;8.820;2023-11-22T07:27:27;97934.31;;;1.74;100.00
70968;BME280;58629;48.808;8.820;2023-11-22T07:29:53;97944.09;;;1.65;100.00
70968;BME280;58629;48.808;8.820;2023-11-22T07:32:19;97945.63;;;1.78;100.00
70968;BME280;58629;48.808;8.820;2023-11-22T07:34:47;97948.88;;;1.63;100.00
70968;BME280;58629;48.808;8.820;2023-11-22T07:37:12;97957.81;;;1.50;100.00
70968;BME280;58629;48.808;8.820;2023-11-22T07:39:39;97967.69;;;1.68;100.00
70968;BME280;58629;48.808;8.820;2023-11-22T07:42:05;97972.16;;;1.68;100.00
70968;BME280;58629;48.808;8.820;2023-11-22T07:44:35;97960.09;;;1.51;97.97
70968;BME280;58629;48.808;8.820;2023-11-22T07:47:01;97967.81;;;1.60;99.57
70968;BME280;58629;48.808;8.820;2023-11-22T07:49:27;97966.63;;;1.57;97.87
70968;BME280;58629;48.808;8.820;2023-11-22T07:51:54;97966.28;;;1.59;98.80
70968;BME280;58629;48.808;8.820;2023-11-22T07:54:19;97961.63;;;1.52;97.60
70968;BME280;58629;48.808;8.820;2023-11-22T07:56:50;97961.63;;;1.52;96.72
70968;BME280;58629;48.808;8.820;2023-11-22T07:59:17;97967.59;;;1.53;97.37
70968;BME280;58629;48.808;8.820;2023-11-22T08:01:43;97976.28;;;1.57;98.62
70968;BME280;58629;48.808;8.820;2023-11-22T08:04:08;97968.34;;;1.65;100.00
70968;BME280;58629;48.808;8.820;2023-11-22T08:06:34;97972.72;;;1.61;100.00
70968;BME280;58629;48.808;8.820;2023-11-22T08:09:00;97975.31;;;1.61;97.61
70968;BME280;58629;48.808;8.820;2023-11-22T08:11:26;97968.91;;;1.71;98.47
70968;BME280;58629;48.808;8.820;2023-11-22T08:13:53;97965.22;;;1.72;96.72
70968;BME280;58629;48.808;8.820;2023-11-22T08:16:20;97965.41;;;1.79;99.19
70968;BME280;58629;48.808;8.820;2023-11-22T08:18:45;97965.94;;;1.85;99.10
70968;BME280;58629;48.808;8.820;2023-11-22T08:21:10;97961.38;;;1.82;96.55
70968;BME280;58629;48.808;8.820;2023-11-22T08:23:37;97967.13;;;1.87;96.55
70968;BME280;58629;48.808;8.820;2023-11-22T08:26:02;97966.06;;;1.88;96.69
70968;BME280;58629;48.808;8.820;2023-11-22T08:28:28;97974.66;;;1.76;92.21
70968;BME280;58629;48.808;8.820;2023-11-22T08:30:54;97972.59;;;1.70;90.43
70968;BME280;58629;48.808;8.820;2023-11-22T08:33:19;97972.38;;;1.63;89.98
70968;BME280;58629;48.808;8.820;2023-11-22T08:35:45;97968.69;;;1.64;91.44
70968;BME280;58629;48.808;8.820;2023-11-22T08:38:16;97967.38;;;1.70;92.81
70968;BME280;58629;48.808;8.820;2023-11-22T08:40:42;97966.19;;;1.67;93.39
70968;BME280;58629;48.808;8.820;2023-11-22T08:43:07;97977.06;;;1.69;91.30
70968;BME280;58629;48.808;8.820;2023-11-22T08:45:32;97979.22;;;1.80;92.75
70968;BME280;58629;48.808;8.820;2023-11-22T08:47:58;97982.28;;;1.94;93.41
70968;BME280;58629;48.808;8.820;2023-11-22T08:50:24;97983.00;;;1.94;95.25
70968;BME280;58629;48.808;8.820;2023-11-22T08:52:49;97992.47;;;1.99;95.12
70968;BME280;58629;48.808;8.820;2023-11-22T08:55:19;97989.31;;;2.05;96.55
70968;BME280;58629;48.808;8.820;2023-11-22T08:57:47;97995.63;;;2.04;94.20
70968;BME280;58629;48.808;8.820;2023-11-22T09:00:13;97986.81;;;1.97;94.39
70968;BME280;58629;48.808;8.820;2023-11-22T09:02:39;97980.72;;;1.93;91.97
70968;BME280;58629;48.808;8.820;2023-11-22T09:05:06;97994.88;;;2.04;92.27
70968;BME280;58629;48.808;8.820;2023-11-22T09:07:34;97988.44;;;2.13;90.31
70968;BME280;58629;48.808;8.820;2023-11-22T09:10:04;97976.56;;;2.16;91.42
70968;BME280;58629;48.808;8.820;2023-11-22T09:12:37;97981.13;;;2.19;92.43
70968;BME280;58629;48.808;8.820;2023-11-22T09:15:12;97987.13;;;2.07;88.22
70968;BME280;58629;48.808;8.820;2023-11-22T09:17:51;97983.56;;;2.12;90.68
70968;BME280;58629;48.808;8.820;2023-11-22T09:20:20;97982.00;;;2.23;90.48
70968;BME280;58629;48.808;8.820;2023-11-22T09:22:47;97972.69;;;2.37;91.99
70968;BME280;58629;48.808;8.820;2023-11-22T09:25:20;97970.13;;;2.53;94.96
70968;BME280;58629;48.808;8.820;2023-11-22T09:27:49;97968.97;;;2.66;96.16
70968;BME280;58629;48.808;8.820;2023-11-22T09:30:20;97971.13;;;2.76;93.77
70968;BME280;58629;48.808;8.820;2023-11-22T09:33:06;97983.13;;;2.77;91.70
70968;BME280;58629;48.808;8.820;2023-11-22T09:35:35;97986.59;;;2.81;93.13
70968;BME280;58629;48.808;8.820;2023-11-22T09:38:02;97983.81;;;2.90;93.08
70968;BME280;58629;48.808;8.820;2023-11-22T09:40:29;97991.63;;;2.74;88.38
70968;BME280;58629;48.808;8.820;2023-11-22T09:42:59;98001.25;;;2.58;87.01
70968;BME280;58629;48.808;8.820;2023-11-22T09:45:27;98000.41;;;2.54;89.62
70968;BME280;58629;48.808;8.820;2023-11-22T09:47:54;98001.22;;;2.42;87.82
70968;BME280;58629;48.808;8.820;2023-11-22T09:52:50;98009.53;;;2.20;89.08
70968;BME280;58629;48.808;8.820;2023-11-22T09:55:20;98009.88;;;2.07;88.90
70968;BME280;58629;48.808;8.820;2023-11-22T09:57:46;98012.03;;;2.29;91.84
70968;BME280;58629;48.808;8.820;2023-11-22T10:00:11;98020.41;;;2.22;91.87
70968;BME280;58629;48.808;8.820;2023-11-22T10:02:41;98022.38;;;2.37;92.34
70968;BME280;58629;48.808;8.820;2023-11-22T10:05:07;98025.63;;;2.34;90.64
70968;BME280;58629;48.808;8.820;2023-11-22T10:07:37;98024.63;;;2.39;90.50
70968;BME280;58629;48.808;8.820;2023-11-22T10:10:04;98034.00;;;2.28;92.89
70968;BME280;58629;48.808;8.820;2023-11-22T10:12:32;98030.56;;;2.12;90.38
70968;BME280;58629;48.808;8.820;2023-11-22T10:15:14;98036.25;;;2.02;91.87
70968;BME280;58629;48.808;8.820;2023-11-22T10:17:41;98041.75;;;2.12;93.97
70968;BME280;58629;48.808;8.820;2023-11-22T10:20:12;98036.75;;;2.31;92.99
70968;BME280;58629;48.808;8.820;2023-11-22T10:22:44;98025.69;;;2.50;92.18
70968;BME280;58629;48.808;8.820;2023-11-22T10:25:10;98021.84;;;2.59;89.56
70968;BME280;58629;48.808;8.820;2023-11-22T10:27:38;98022.91;;;2.71;92.81
70968;BME280;58629;48.808;8.820;2023-11-22T10:30:04;98021.75;;;2.84;92.94
70968;BME280;58629;48.808;8.820;2023-11-22T10:32:30;98028.19;;;2.86;90.73
70968;BME280;58629;48.808;8.820;2023-11-22T10:34:55;98027.94;;;2.91;91.02
70968;BME280;58629;48.808;8.820;2023-11-22T10:37:21;98028.47;;;2.97;90.84
70968;BME280;58629;48.808;8.820;2023-11-22T10:39:52;98018.59;;;3.06;91.05
70968;BME280;58629;48.808;8.820;2023-11-22T10:42:18;98024.03;;;3.13;91.19
70968;BME280;58629;48.808;8.820;2023-11-22T10:44:45;98017.53;;;3.22;92.51
70968;BME280;58629;48.808;8.820;2023-11-22T10:47:14;98016.09;;;3.25;91.18
70968;BME280;58629;48.808;8.820;2023-11-22T10:49:42;98026.75;;;3.32;91.23
70968;BME280;58629;48.808;8.820;2023-11-22T10:52:12;98038.31;;;3.31;90.61
70968;BME280;58629;48.808;8.820;2023-11-22T10:54:43;98049.06;;;3.41;92.64
70968;BME280;58629;48.808;8.820;2023-11-22T10:57:11;98061.00;;;3.27;88.81
70968;BME280;58629;48.808;8.820;2023-11-22T10:59:39;98063.16;;;3.37;91.35
70968;BME280;58629;48.808;8.820;2023-11-22T11:02:11;98069.41;;;3.32;90.11
70968;BME280;58629;48.808;8.820;2023-11-22T11:04:51;98070.50;;;3.31;90.86
70968;BME280;58629;48.808;8.820;2023-11-22T11:07:21;98067.19;;;3.19;86.00
70968;BME280;58629;48.808;8.820;2023-11-22T11:09:49;98063.94;;;3.10;85.55
70968;BME280;58629;48.808;8.820;2023-11-22T11:12:17;98061.63;;;3.20;88.67
70968;BME280;58629;48.808;8.820;2023-11-22T11:14:43;98062.44;;;3.09;87.85
70968;BME280;58629;48.808;8.820;2023-11-22T11:17:12;98077.88;;;3.14;87.63
70968;BME280;58629;48.808;8.820;2023-11-22T11:19:38;98079.91;;;3.05;87.65
70968;BME280;58629;48.808;8.820;2023-11-22T11:22:03;98074.13;;;2.99;89.30
70968;BME280;58629;48.808;8.820;2023-11-22T11:24:41;98064.84;;;2.74;88.17
70968;BME280;58629;48.808;8.820;2023-11-22T11:27:10;98073.56;;;2.66;92.16
70968;BME280;58629;48.808;8.820;2023-11-22T11:29:36;98088.06;;;2.63;89.38
70968;BME280;58629;48.808;8.820;2023-11-22T11:32:10;98075.22;;;2.71;90.72
70968;BME280;58629;48.808;8.820;2023-11-22T11:34:48;98082.16;;;2.39;91.98
70968;BME280;58629;48.808;8.820;2023-11-22T11:37:20;98076.94;;;2.15;91.05
70968;BME280;58629;48.808;8.820;2023-11-22T11:39:45;98077.69;;;2.27;92.26
70968;BME280;58629;48.808;8.820;2023-11-22T11:42:11;98074.06;;;2.32;92.34
70968;BME280;58629;48.808;8.820;2023-11-22T11:44:51;98087.91;;;2.44;90.12
70968;BME280;58629;48.808;8.820;2023-11-22T11:47:17;98091.03;;;2.50;91.37
70968;BME280;58629;48.808;8.820;2023-11-22T11:49:42;98091.03;;;2.50;90.04
70968;BME280;58629;48.808;8.820;2023-11-22T11:52:08;98096.19;;;2.34;89.89
70968;BME280;58629;48.808;8.820;2023-11-22T11:54:33;98097.63;;;2.20;92.35
70968;BME280;58629;48.808;8.820;2023-11-22T11:57:00;98098.16;;;2.13;94.76
70968;BME280;58629;48.808;8.820;2023-11-22T11:59:26;98104.81;;;2.23;96.60
70968;BME280;58629;48.808;8.820;2023-11-22T12:01:55;98094.34;;;2.23;94.79
70968;BME280;58629;48.808;8.820;2023-11-22T12:04:24;98097.56;;;2.56;100.00
70968;BME280;58629;48.808;8.820;2023-11-22T12:06:50;98103.00;;;2.75;96.67
70968;BME280;58629;48.808;8.820;2023-11-22T12:09:25;98107.31;;;2.31;91.23
70968;BME280;58629;48.808;8.820;2023-11-22T12:11:51;98121.00;;;2.64;94.52
70968;BME280;58629;48.808;8.820;2023-11-22T12:14:19;98130.59;;;2.48;91.35
70968;BME280;58629;48.808;8.820;2023-11-22T12:16:45;98109.31;;;2.62;91.70
70968;BME280;58629;48.808;8.820;2023-11-22T12:19:21;98110.19;;;2.66;95.85
70968;BME280;58629;48.808;8.820;2023-11-22T12:21:48;98120.34;;;2.95;92.64
70968;BME280;58629;48.808;8.820;2023-11-22T12:24:14;98129.13;;;3.42;100.00
70968;BME280;58629;48.808;8.820;2023-11-22T12:26:47;98134.69;;;3.41;87.39
70968;BME280;58629;48.808;8.820;2023-11-22T12:29:16;98123.09;;;3.85;95.03
70968;BME280;58629;48.808;8.820;2023-11-22T12:31:46;98133.22;;;3.71;86.46
70968;BME280;58629;48.808;8.820;2023-11-22T12:34:14;98140.19;;;3.36;85.87
70968;BME280;58629;48.808;8.820;2023-11-22T12:36:40;98143.91;;;3.23;86.60
70968;BME280;58629;48.808;8.820;2023-11-22T12:39:09;98139.28;;;2.64;89.93
70968;BME280;58629;48.808;8.820;2023-11-22T12:41:48;98135.63;;;2.17;94.84
70968;BME280;58629;48.808;8.820;2023-11-22T12:44:16;98134.19;;;1.84;94.93
70968;BME280;58629;48.808;8.820;2023-11-22T12:46:52;98126.00;;;1.73;95.55
70968;BME280;58629;48.808;8.820;2023-11-22T12:49:25;98126.41;;;1.63;97.22
70968;BME280;58629;48.808;8.820;2023-11-22T12:51:52;98117.69;;;1.59;99.48
70968;BME280;58629;48.808;8.820;2023-11-22T12:54:18;98121.66;;;1.77;99.96
70968;BME280;58629;48.808;8.820;2023-11-22T12:56:55;98128.59;;;1.73;98.12
70968;BME280;58629;48.808;8.820;2023-11-22T12:59:23;98115.00;;;1.67;97.36
70968;BME280;58629;48.808;8.820;2023-11-22T13:01:50;98110.97;;;1.58;97.56
70968;BME280;58629;48.808;8.820;2023-11-22T13:04:15;98105.81;;;1.49;97.92
70968;BME280;58629;48.808;8.820;2023-11-22T13:06:41;98109.31;;;1.53;100.00